Time;durP1;ratioP1;P1;durP2;ratioP2;P2;SDS_P1;SDS_P2;PMS_P1;PMS_P2;Temp;Humidity;BMP_temperature;BMP_pressure;BME280_temperature;BME280_humidity;BME280_pressure;Samples;Min_cycle;Max_cycle;Signal;HPM_P1;HPM_P2
2021/03/24 00:01:45;;;;;;;14.63;8.70;;;2.50;87.40;;;;;;5111179;27;20207;-86
2021/03/24 00:04:12;;;;;;;12.03;8.13;;;2.50;87.80;;;;;;5108893;28;20223;-85
2021/03/24 00:06:39;;;;;;;13.00;8.13;;;2.50;87.40;;;;;;5111162;27;20334;-83
2021/03/24 00:09:09;;;;;;;15.93;8.60;;;2.50;87.80;;;;;;5114295;27;20222;-83
2021/03/24 00:11:36;;;;;;;12.00;7.93;;;2.40;88.60;;;;;;5108563;28;20208;-83
2021/03/24 00:14:03;;;;;;;12.73;8.57;;;2.40;88.10;;;;;;5111416;28;20625;-83
2021/03/24 00:16:29;;;;;;;13.40;8.60;;;2.30;87.50;;;;;;5106533;28;20405;-83
2021/03/24 00:18:56;;;;;;;15.40;9.80;;;2.20;88.40;;;;;;5116724;28;20223;-84
2021/03/24 00:21:23;;;;;;;12.10;8.67;;;2.10;89.60;;;;;;5115631;28;20594;-84
2021/03/24 00:23:50;;;;;;;14.70;8.90;;;2.10;90.00;;;;;;5108636;28;20225;-84
2021/03/24 00:26:16;;;;;;;16.50;9.70;;;2.20;90.00;;;;;;5118455;28;20214;-83
2021/03/24 00:28:43;;;;;;;12.00;8.30;;;2.20;89.70;;;;;;5112830;28;20226;-83
2021/03/24 00:31:09;;;;;;;12.33;8.20;;;2.20;89.60;;;;;;5122219;27;20296;-83
2021/03/24 00:33:36;;;;;;;12.93;8.23;;;2.20;89.50;;;;;;5125938;27;20203;-83
2021/03/24 00:36:03;;;;;;;12.10;7.73;;;2.20;89.80;;;;;;5120923;27;20267;-84
2021/03/24 00:38:30;;;;;;;14.07;8.33;;;2.10;89.50;;;;;;5125752;27;20203;-83
2021/03/24 00:40:58;;;;;;;11.93;8.60;;;2.10;90.00;;;;;;5119240;27;20800;-83
2021/03/24 00:43:26;;;;;;;14.17;8.27;;;2.00;90.00;;;;;;5103368;28;20207;-83
2021/03/24 00:45:52;;;;;;;13.13;7.87;;;2.00;90.20;;;;;;5125239;27;20596;-84
2021/03/24 00:48:21;;;;;;;15.50;9.07;;;2.00;90.30;;;;;;5121796;27;20204;-83
2021/03/24 00:50:48;;;;;;;12.50;8.07;;;1.90;90.20;;;;;;5117426;27;20336;-84
2021/03/24 00:53:16;;;;;;;13.60;8.50;;;1.90;90.40;;;;;;5117045;27;20204;-83
2021/03/24 00:55:42;;;;;;;14.63;9.00;;;1.80;90.80;;;;;;5107680;28;20234;-83
2021/03/24 00:58:10;;;;;;;15.77;9.70;;;1.70;90.60;;;;;;5105529;27;20211;-82
2021/03/24 01:00:39;;;;;;;15.53;8.83;;;1.50;91.00;;;;;;5109786;27;20580;-83
2021/03/24 01:03:06;;;;;;;14.97;8.80;;;1.40;91.60;;;;;;5117101;27;20240;-85
2021/03/24 01:05:33;;;;;;;13.60;9.33;;;1.30;91.90;;;;;;5114750;27;20699;-84
2021/03/24 01:08:02;;;;;;;14.10;9.20;;;1.40;92.10;;;;;;5119225;27;20574;-83
2021/03/24 01:10:31;;;;;;;14.90;8.93;;;1.50;91.90;;;;;;5116287;27;20249;-83
2021/03/24 01:12:58;;;;;;;15.83;8.83;;;1.60;91.70;;;;;;5109088;28;20201;-83
2021/03/24 01:15:26;;;;;;;13.60;8.60;;;1.60;91.70;;;;;;5116102;28;20244;-83
2021/03/24 01:17:53;;;;;;;13.27;8.93;;;1.60;91.70;;;;;;5115857;27;20665;-83
2021/03/24 01:20:21;;;;;;;14.07;8.60;;;1.60;91.70;;;;;;5116767;27;20326;-82
2021/03/24 01:22:48;;;;;;;14.57;9.03;;;1.70;91.70;;;;;;5120457;27;20206;-84
2021/03/24 01:25:15;;;;;;;15.33;8.80;;;1.70;91.70;;;;;;5120165;27;20225;-83
2021/03/24 01:27:42;;;;;;;13.93;9.20;;;1.70;91.50;;;;;;5116535;27;20213;-83
2021/03/24 01:30:09;;;;;;;13.03;8.73;;;1.70;91.40;;;;;;5119978;27;20228;-82
2021/03/24 01:32:37;;;;;;;14.03;8.73;;;1.70;91.30;;;;;;5122227;27;20221;-83
2021/03/24 01:35:05;;;;;;;12.87;8.53;;;1.70;91.30;;;;;;5127203;27;20235;-83
2021/03/24 01:37:31;;;;;;;16.67;8.97;;;1.70;91.40;;;;;;5127464;27;20213;-84
2021/03/24 01:39:57;;;;;;;15.30;9.00;;;1.70;91.50;;;;;;5120615;27;20294;-83
2021/03/24 01:42:24;;;;;;;17.60;9.93;;;1.60;91.70;;;;;;5112144;27;20673;-84
2021/03/24 01:45:03;;;;;;;12.70;8.63;;;1.60;91.70;;;;;;5116861;27;20728;-83
2021/03/24 01:47:31;;;;;;;13.70;8.60;;;1.60;91.70;;;;;;5123620;27;20600;-83
2021/03/24 01:49:58;;;;;;;13.30;9.20;;;1.60;91.80;;;;;;5117487;27;20230;-84
2021/03/24 01:52:25;;;;;;;14.87;9.03;;;1.50;91.90;;;;;;5119465;27;20226;-83
2021/03/24 01:54:52;;;;;;;12.40;8.53;;;1.50;92.00;;;;;;5110755;27;20232;-84
2021/03/24 01:57:23;;;;;;;15.20;8.83;;;1.50;92.10;;;;;;5117453;27;20231;-82
2021/03/24 01:59:52;;;;;;;12.00;8.07;;;1.50;92.00;;;;;;5110209;27;20643;-82
2021/03/24 02:02:20;;;;;;;15.00;9.03;;;1.60;91.90;;;;;;5117201;27;20263;-83
2021/03/24 02:04:48;;;;;;;14.20;8.70;;;1.50;91.90;;;;;;5119902;27;20230;-83
2021/03/24 02:07:22;;;;;;;12.30;8.30;;;1.60;91.90;;;;;;5118614;27;20211;-83
2021/03/24 02:09:53;;;;;;;13.53;8.50;;;1.50;91.90;;;;;;5110381;27;20285;-85
2021/03/24 02:12:24;;;;;;;14.33;8.70;;;1.60;91.80;;;;;;5118150;27;20232;-82
2021/03/24 02:14:54;;;;;;;13.53;8.60;;;1.50;91.80;;;;;;5118551;27;20239;-83
2021/03/24 02:17:23;;;;;;;13.33;8.50;;;1.50;91.90;;;;;;5119694;27;20280;-83
2021/03/24 02:20:04;;;;;;;15.77;9.17;;;1.60;91.90;;;;;;5120922;27;20228;-83
2021/03/24 02:22:36;;;;;;;15.43;8.50;;;1.50;91.80;;;;;;5117894;27;20235;-83
2021/03/24 02:25:07;;;;;;;15.13;8.90;;;1.50;91.80;;;;;;5121660;27;20292;-83
2021/03/24 02:27:39;;;;;;;17.43;9.27;;;1.40;91.90;;;;;;5117266;27;20208;-83
2021/03/24 02:30:10;;;;;;;15.40;8.97;;;1.40;92.10;;;;;;5109504;27;20217;-84
2021/03/24 02:32:39;;;;;;;14.93;8.70;;;1.40;92.20;;;;;;5117810;27;20670;-83
2021/03/24 02:35:11;;;;;;;14.87;8.63;;;1.40;92.10;;;;;;5107317;27;20229;-84
2021/03/24 02:37:38;;;;;;;12.57;8.33;;;1.40;92.00;;;;;;5114305;27;20217;-83
2021/03/24 02:40:09;;;;;;;14.33;9.27;;;1.40;92.20;;;;;;5117320;27;20561;-83
2021/03/24 02:42:37;;;;;;;13.43;8.77;;;1.30;92.20;;;;;;5114265;27;20206;-83
2021/03/24 02:45:05;;;;;;;14.07;8.73;;;1.20;92.10;;;;;;5116107;27;20542;-83
2021/03/24 02:47:31;;;;;;;14.83;8.67;;;1.10;92.50;;;;;;5115031;27;20618;-83
2021/03/24 02:49:58;;;;;;;13.30;8.33;;;1.10;92.90;;;;;;5111539;27;20227;-84
2021/03/24 02:52:25;;;;;;;15.40;9.23;;;1.00;93.60;;;;;;5112478;27;20600;-83
2021/03/24 02:54:52;;;;;;;14.40;8.87;;;1.00;93.70;;;;;;5108591;27;20228;-83
2021/03/24 02:57:20;;;;;;;13.77;8.87;;;1.00;93.50;;;;;;5112374;28;20249;-83
2021/03/24 02:59:47;;;;;;;15.30;8.53;;;1.10;93.30;;;;;;5103908;27;20456;-83
2021/03/24 03:02:16;;;;;;;14.00;9.00;;;1.20;93.20;;;;;;5105844;27;20240;-83
2021/03/24 03:04:47;;;;;;;14.70;8.60;;;1.20;93.00;;;;;;5108369;27;20224;-83
2021/03/24 03:07:16;;;;;;;10.77;7.90;;;1.20;92.90;;;;;;5102265;27;20204;-84
2021/03/24 03:09:49;;;;;;;16.50;8.47;;;1.20;92.90;;;;;;5112800;27;20256;-83
2021/03/24 03:12:24;;;;;;;13.10;8.60;;;1.20;92.90;;;;;;5117430;27;20627;-83
2021/03/24 03:14:57;;;;;;;14.57;8.97;;;1.20;92.80;;;;;;5115905;27;20229;-83
2021/03/24 03:17:33;;;;;;;13.77;8.13;;;1.20;92.80;;;;;;5116715;27;20208;-83
2021/03/24 03:20:06;;;;;;;11.70;7.73;;;1.10;92.90;;;;;;5107564;27;20276;-83
2021/03/24 03:22:36;;;;;;;13.60;8.70;;;1.00;93.00;;;;;;5116730;27;20240;-83
2021/03/24 03:25:11;;;;;;;15.93;8.43;;;1.10;93.00;;;;;;5108091;27;20227;-83
2021/03/24 03:27:38;;;;;;;12.73;8.33;;;1.00;93.40;;;;;;5114414;27;20287;-83
2021/03/24 03:30:12;;;;;;;14.27;8.63;;;1.00;93.20;;;;;;5106577;27;20266;-83
2021/03/24 03:32:39;;;;;;;15.20;7.83;;;1.20;93.20;;;;;;5116949;27;20227;-83
2021/03/24 03:35:09;;;;;;;12.70;8.10;;;1.30;93.10;;;;;;5112935;28;20263;-83
2021/03/24 03:37:37;;;;;;;13.17;8.10;;;1.30;92.70;;;;;;5107152;27;20293;-84
2021/03/24 03:40:06;;;;;;;12.77;8.20;;;1.40;92.70;;;;;;5112936;28;20356;-83
2021/03/24 03:42:33;;;;;;;13.87;8.50;;;1.50;92.60;;;;;;5108206;28;20727;-83
2021/03/24 03:45:01;;;;;;;16.07;8.30;;;1.50;92.40;;;;;;5110136;27;20221;-83
2021/03/24 03:47:28;;;;;;;13.40;8.33;;;1.60;92.10;;;;;;5117459;27;20299;-83
2021/03/24 03:49:55;;;;;;;15.63;8.17;;;1.60;92.10;;;;;;5119562;27;20229;-83
2021/03/24 03:52:30;;;;;;;12.77;8.40;;;1.70;92.10;;;;;;5118604;27;20744;-83
2021/03/24 03:55:08;;;;;;;12.77;7.90;;;1.70;91.90;;;;;;5110559;28;20221;-83
2021/03/24 03:57:41;;;;;;;13.03;8.70;;;1.70;91.80;;;;;;5113879;27;20202;-83
2021/03/24 04:00:13;;;;;;;14.13;8.83;;;1.70;91.90;;;;;;5106444;28;20307;-83
2021/03/24 04:02:47;;;;;;;15.93;9.17;;;1.70;92.20;;;;;;5113265;28;20325;-83
2021/03/24 04:05:21;;;;;;;12.13;8.20;;;1.70;92.00;;;;;;5114085;28;20704;-85
2021/03/24 04:07:54;;;;;;;12.10;7.93;;;1.80;91.70;;;;;;5110598;28;20201;-83
2021/03/24 04:10:23;;;;;;;14.33;8.70;;;1.70;91.80;;;;;;5113756;28;20278;-83
2021/03/24 04:12:49;;;;;;;11.73;7.97;;;1.70;92.00;;;;;;5116353;27;20202;-84
2021/03/24 04:15:18;;;;;;;12.67;8.70;;;1.70;92.10;;;;;;5109674;27;20271;-83
2021/03/24 04:17:50;;;;;;;14.30;8.90;;;1.70;91.80;;;;;;5110561;28;20240;-83
2021/03/24 04:20:19;;;;;;;13.80;8.53;;;1.80;91.70;;;;;;5111184;27;20586;-83
2021/03/24 04:22:48;;;;;;;13.53;9.13;;;1.80;91.70;;;;;;5120502;28;20239;-83
2021/03/24 04:25:20;;;;;;;18.77;9.20;;;1.70;91.70;;;;;;5113061;28;20276;-84
2021/03/24 04:27:48;;;;;;;14.00;8.13;;;1.60;91.90;;;;;;5121436;28;20213;-82
2021/03/24 04:30:19;;;;;;;13.10;8.60;;;1.60;91.90;;;;;;5120790;27;20216;-84
2021/03/24 04:32:46;;;;;;;14.07;8.43;;;1.60;92.50;;;;;;5119659;28;20288;-83
2021/03/24 04:35:17;;;;;;;13.00;8.50;;;1.70;92.10;;;;;;5109708;28;20225;-83
2021/03/24 04:37:46;;;;;;;15.27;8.70;;;1.70;92.00;;;;;;5111871;28;20202;-84
2021/03/24 04:40:23;;;;;;;12.40;8.47;;;1.60;92.10;;;;;;5115620;28;20228;-83
2021/03/24 04:42:53;;;;;;;14.63;8.70;;;1.60;92.20;;;;;;5111585;27;20253;-85
2021/03/24 04:45:38;;;;;;;14.50;8.63;;;1.60;92.00;;;;;;5111810;27;20313;-84
2021/03/24 04:48:13;;;;;;;15.73;8.37;;;1.50;92.00;;;;;;5113575;27;20212;-85
2021/03/24 04:50:43;;;;;;;12.40;8.53;;;1.50;92.30;;;;;;5107982;28;20316;-84
2021/03/24 04:53:15;;;;;;;14.27;8.77;;;1.50;92.30;;;;;;5113006;27;20595;-84
2021/03/24 04:55:43;;;;;;;14.77;8.77;;;1.40;92.30;;;;;;5112130;27;20569;-84
2021/03/24 04:58:18;;;;;;;12.93;7.80;;;1.30;92.40;;;;;;5110957;27;20641;-85
2021/03/24 05:00:49;;;;;;;15.63;8.80;;;1.20;92.60;;;;;;5110804;28;20233;-84
2021/03/24 05:03:21;;;;;;;13.77;8.23;;;1.20;92.70;;;;;;5107801;28;20224;-83
2021/03/24 05:05:51;;;;;;;13.07;8.17;;;1.20;92.60;;;;;;5113275;28;20280;-83
2021/03/24 05:08:23;;;;;;;15.63;8.93;;;1.20;92.50;;;;;;5113625;27;20211;-83
2021/03/24 05:10:51;;;;;;;12.40;7.93;;;1.20;92.50;;;;;;5105939;28;20212;-85
2021/03/24 05:13:24;;;;;;;13.83;8.07;;;1.20;92.60;;;;;;5112709;28;20201;-86
2021/03/24 05:15:58;;;;;;;12.23;8.00;;;1.10;92.80;;;;;;5109109;28;20224;-86
2021/03/24 05:18:26;;;;;;;13.87;8.53;;;1.00;92.70;;;;;;5108436;27;20200;-86
2021/03/24 05:20:57;;;;;;;16.50;8.23;;;1.00;93.10;;;;;;5113931;27;20276;-85
2021/03/24 05:23:24;;;;;;;11.13;7.47;;;1.00;93.00;;;;;;5113497;27;20200;-85
2021/03/24 05:25:57;;;;;;;13.90;7.80;;;1.00;93.00;;;;;;5112217;27;20280;-85
2021/03/24 05:28:28;;;;;;;11.60;7.77;;;1.10;92.90;;;;;;5115082;27;20635;-85
2021/03/24 05:31:01;;;;;;;11.77;7.80;;;1.10;92.70;;;;;;5116690;27;20213;-85
2021/03/24 05:33:31;;;;;;;13.63;8.37;;;1.20;92.50;;;;;;5118650;27;20210;-85
2021/03/24 05:36:03;;;;;;;11.53;7.50;;;1.10;92.70;;;;;;5109324;27;20224;-86
2021/03/24 05:38:34;;;;;;;11.73;7.43;;;1.20;92.70;;;;;;5111894;27;20607;-86
2021/03/24 05:41:14;;;;;;;15.10;8.73;;;1.30;92.30;;;;;;5110625;27;20197;-85
2021/03/24 05:44:13;;;;;;;11.40;7.40;;;1.30;92.10;;;;;;5103220;27;20247;-84
2021/03/24 05:46:56;;;;;;;14.87;7.80;;;1.40;92.00;;;;;;5102904;28;20299;-85
2021/03/24 05:49:33;;;;;;;11.77;6.97;;;1.40;92.00;;;;;;5108294;27;20728;-84
2021/03/24 05:52:12;;;;;;;15.30;7.80;;;1.40;91.90;;;;;;5109912;27;20201;-84
2021/03/24 05:54:47;;;;;;;16.07;7.73;;;1.40;91.90;;;;;;5114086;27;20224;-84
2021/03/24 05:57:35;;;;;;;17.20;7.80;;;1.40;92.00;;;;;;5105929;27;20265;-84
2021/03/24 06:00:24;;;;;;;12.20;7.63;;;1.40;92.20;;;;;;5108949;27;20223;-84
2021/03/24 06:03:03;;;;;;;15.80;8.37;;;1.30;92.10;;;;;;5112102;28;20603;-84
2021/03/24 06:05:36;;;;;;;14.20;8.23;;;1.20;92.40;;;;;;5109872;27;20218;-84
2021/03/24 06:08:32;;;;;;;13.93;8.50;;;1.20;92.90;;;;;;5112528;27;20317;-85
2021/03/24 06:11:12;;;;;;;14.57;8.80;;;1.30;93.10;;;;;;5110442;27;20227;-85
2021/03/24 06:14:14;;;;;;;15.37;8.03;;;1.50;92.70;;;;;;5111509;27;20622;-84
2021/03/24 06:17:09;;;;;;;14.37;8.63;;;1.70;92.20;;;;;;5108938;27;20581;-85
2021/03/24 06:19:46;;;;;;;13.07;7.90;;;1.80;91.80;;;;;;5113044;27;20226;-85
2021/03/24 06:22:27;;;;;;;23.40;9.20;;;2.00;91.50;;;;;;5119947;27;20689;-84
2021/03/24 06:25:02;;;;;;;17.47;8.87;;;2.00;91.40;;;;;;5113997;27;20230;-84
2021/03/24 06:27:48;;;;;;;13.03;7.73;;;2.10;91.30;;;;;;5110251;27;20267;-85
2021/03/24 06:30:26;;;;;;;12.90;8.20;;;2.20;90.90;;;;;;5115471;27;20225;-84
2021/03/24 06:33:07;;;;;;;18.70;8.33;;;2.30;91.00;;;;;;5113063;28;20199;-85
2021/03/24 06:36:16;;;;;;;11.93;7.67;;;2.30;91.00;;;;;;5111993;27;20689;-87
2021/03/24 06:38:56;;;;;;;11.50;8.13;;;2.60;90.80;;;;;;5089124;27;20254;-82
2021/03/24 06:41:47;;;;;;;13.40;7.20;;;3.60;90.00;;;;;;5119015;27;20573;-82
2021/03/24 06:44:32;;;;;;;11.70;6.97;;;4.70;82.90;;;;;;5119767;27;20220;-86
2021/03/24 06:47:04;;;;;;;12.53;7.40;;;5.70;76.90;;;;;;5118430;27;20242;-85
2021/03/24 06:49:44;;;;;;;10.27;6.87;;;6.10;70.90;;;;;;5121800;27;20231;-90
2021/03/24 06:52:41;;;;;;;10.87;7.23;;;6.40;71.20;;;;;;5115312;27;20290;-90
2021/03/24 06:55:47;;;;;;;18.35;7.38;;;7.30;64.30;;;;;;5121267;27;20739;-89
2021/03/24 06:58:37;;;;;;;14.88;7.78;;;7.80;61.60;;;;;;5107416;27;20238;-89
2021/03/24 07:01:34;;;;;;;12.02;7.50;;;8.60;57.50;;;;;;5117742;27;20237;-88
2021/03/24 07:04:52;;;;;;;13.68;6.95;;;8.60;55.10;;;;;;5122174;27;20687;-88
2021/03/24 07:07:55;;;;;;;9.57;7.28;;;8.80;54.60;;;;;;5123827;27;20674;-89
2021/03/24 07:10:41;;;;;;;9.88;6.63;;;8.90;52.60;;;;;;5097946;27;20239;-89
2021/03/24 07:13:45;;;;;;;11.43;7.32;;;8.80;52.20;;;;;;5098760;28;20670;-88
2021/03/24 07:16:19;;;;;;;14.27;7.45;;;8.20;54.40;;;;;;5121036;27;20214;-88
2021/03/24 07:19:04;;;;;;;10.93;7.38;;;7.30;58.00;;;;;;5124267;27;20191;-87
2021/03/24 07:22:19;;;;;;;11.27;7.05;;;6.80;59.90;;;;;;5122356;27;20188;-86
2021/03/24 07:25:10;;;;;;;12.27;7.03;;;7.00;61.60;;;;;;5050715;28;20253;-86
2021/03/24 07:28:24;;;;;;;11.32;7.00;;;7.50;60.40;;;;;;5057181;28;20205;-88
2021/03/24 07:31:38;;;;;;;12.07;7.07;;;7.40;59.90;;;;;;5116540;27;20685;-87
2021/03/24 07:34:18;;;;;;;17.05;7.30;;;7.10;65.60;;;;;;5117961;27;20215;-87
2021/03/24 07:37:11;;;;;;;15.85;7.60;;;7.10;64.30;;;;;;5136564;27;20255;-89
2021/03/24 07:39:59;;;;;;;14.30;7.80;;;7.40;65.50;;;;;;5119730;27;20287;-89
2021/03/24 07:43:18;;;;;;;16.20;7.45;;;7.70;60.70;;;;;;5122890;27;20204;-89
2021/03/24 07:52:52;;;;;;;12.35;7.50;;;8.60;56.20;;;;;;5142124;27;20162;-85
2021/03/24 07:55:29;;;;;;;10.80;6.97;;;9.00;52.00;;;;;;5141421;27;20227;-85
2021/03/24 07:58:18;;;;;;;15.75;7.70;;;9.10;52.60;;;;;;5132422;27;20262;-87
2021/03/24 08:00:54;;;;;;;10.68;7.55;;;9.20;52.10;;;;;;5121894;27;20276;-87
2021/03/24 08:03:32;;;;;;;12.85;7.93;;;10.10;48.20;;;;;;5111696;28;20241;-86
2021/03/24 08:06:38;;;;;;;12.77;7.25;;;10.50;47.30;;;;;;5105940;28;20276;-87
2021/03/24 08:12:52;;;;;;;13.70;6.57;;;11.90;41.30;;;;;;5133524;27;20206;-87
2021/03/24 08:15:57;;;;;;;10.30;6.43;;;12.00;40.20;;;;;;5083925;28;20258;-86
2021/03/24 08:18:43;;;;;;;8.93;6.30;;;12.50;39.80;;;;;;5097282;28;20200;-87
2021/03/24 08:21:17;;;;;;;9.55;6.18;;;11.70;39.60;;;;;;5104484;28;20227;-87
2021/03/24 08:24:32;;;;;;;10.45;6.20;;;11.80;41.20;;;;;;5067358;28;20195;-87
2021/03/24 08:27:04;;;;;;;9.90;5.78;;;12.30;40.00;;;;;;5064543;28;20263;-87
2021/03/24 08:29:52;;;;;;;10.82;5.38;;;12.50;38.60;;;;;;5107367;28;20228;-87
2021/03/24 08:32:52;;;;;;;11.25;5.95;;;12.40;38.50;;;;;;5129220;28;20255;-87
2021/03/24 08:39:56;;;;;;;11.27;6.03;;;12.00;38.70;;;;;;5055748;28;20258;-87
2021/03/24 08:42:58;;;;;;;16.85;5.90;;;12.20;38.30;;;;;;5105278;28;20192;-92
2021/03/24 08:45:37;;;;;;;10.00;6.07;;;12.30;39.30;;;;;;5109312;28;20593;-91
2021/03/24 08:51:49;;;;;;;12.40;5.78;;;12.30;38.60;;;;;;5105327;28;20238;-86
2021/03/24 08:54:57;;;;;;;8.25;5.60;;;13.00;36.70;;;;;;5107379;27;20242;-85
2021/03/24 08:57:36;;;;;;;9.40;5.88;;;13.60;34.40;;;;;;5089000;28;20220;-91
2021/03/24 09:00:13;;;;;;;8.73;6.00;;;14.40;32.60;;;;;;5112536;28;20234;-86
2021/03/24 09:02:51;;;;;;;7.47;6.35;;;15.00;33.00;;;;;;5123827;28;20223;-86
2021/03/24 09:05:28;;;;;;;11.15;6.43;;;15.50;31.20;;;;;;5127162;28;20227;-86
2021/03/24 09:11:28;;;;;;;13.82;6.55;;;14.40;31.80;;;;;;5103501;28;20298;-85
2021/03/24 09:14:07;;;;;;;9.60;6.28;;;14.90;30.40;;;;;;5110265;28;20245;-85
2021/03/24 09:16:55;;;;;;;10.02;6.15;;;15.40;32.90;;;;;;5113568;28;20248;-86
2021/03/24 09:20:01;;;;;;;12.30;6.65;;;16.30;29.00;;;;;;5095426;28;20228;-86
2021/03/24 09:22:38;;;;;;;11.38;7.57;;;17.10;29.60;;;;;;5096789;28;20204;-86
2021/03/24 09:25:17;;;;;;;11.00;7.80;;;18.40;25.90;;;;;;5091446;28;20224;-85
2021/03/24 09:28:18;;;;;;;10.45;7.72;;;18.70;25.40;;;;;;5104493;28;20212;-82
2021/03/24 09:31:21;;;;;;;9.50;8.02;;;20.00;24.20;;;;;;5099592;28;20632;-80
2021/03/24 09:37:12;;;;;;;11.02;8.05;;;19.00;23.60;;;;;;5098417;28;20261;-80
2021/03/24 09:47:18;;;;;;;10.93;8.30;;;19.10;23.40;;;;;;5123647;28;20226;-81
2021/03/24 09:49:52;;;;;;;16.52;8.70;;;19.30;23.60;;;;;;5123369;28;20247;-81
2021/03/24 09:52:28;;;;;;;19.55;8.80;;;21.30;22.50;;;;;;5108466;28;20219;-80
2021/03/24 09:55:14;;;;;;;12.35;8.57;;;22.10;20.00;;;;;;5100007;28;20255;-82
2021/03/24 10:01:51;;;;;;;17.52;9.63;;;22.10;19.70;;;;;;5097091;28;20264;-81
2021/03/24 10:04:31;;;;;;;13.38;9.65;;;21.00;20.20;;;;;;5098136;28;20231;-82
2021/03/24 10:07:41;;;;;;;12.00;8.65;;;19.90;22.20;;;;;;5097217;28;20206;-81
2021/03/24 10:10:15;;;;;;;11.73;8.55;;;20.20;23.10;;;;;;5108815;28;20223;-82
2021/03/24 10:13:30;;;;;;;10.88;8.73;;;20.70;21.60;;;;;;5119813;28;20207;-82
2021/03/24 10:16:01;;;;;;;12.45;8.73;;;20.40;21.60;;;;;;5120015;27;20235;-82
2021/03/24 10:18:32;;;;;;;9.73;7.45;;;20.80;22.20;;;;;;5116531;27;20192;-83
2021/03/24 10:21:05;;;;;;;12.15;8.63;;;22.10;19.90;;;;;;5119119;28;20207;-83
2021/03/24 10:23:38;;;;;;;11.52;8.65;;;22.50;19.50;;;;;;5119837;28;20579;-83
2021/03/24 10:26:49;;;;;;;13.25;9.50;;;21.40;19.40;;;;;;5119278;28;20195;-82
2021/03/24 10:36:05;;;;;;;11.15;9.10;;;18.90;23.20;;;;;;5134039;27;20304;-82
2021/03/24 10:38:43;;;;;;;13.00;7.97;;;18.60;25.20;;;;;;5119061;28;20552;-83
2021/03/24 10:44:43;;;;;;;11.80;8.32;;;20.20;24.10;;;;;;5119166;28;20226;-83
2021/03/24 10:50:38;;;;;;;12.30;8.05;;;21.10;21.20;;;;;;5141436;27;20230;-82
2021/03/24 10:53:11;;;;;;;11.80;10.07;;;21.90;19.80;;;;;;5125007;27;20208;-83
2021/03/24 10:59:05;;;;;;;11.32;9.07;;;20.50;24.10;;;;;;5113713;28;20310;-82
2021/03/24 11:05:00;;;;;;;12.80;8.32;;;21.30;20.20;;;;;;5119808;28;20704;-83
2021/03/24 11:07:33;;;;;;;11.55;8.13;;;20.20;24.10;;;;;;5117077;27;20574;-81
2021/03/24 11:13:28;;;;;;;12.68;8.77;;;20.10;22.60;;;;;;5120327;28;20221;-84
2021/03/24 11:16:14;;;;;;;11.82;8.45;;;18.80;24.60;;;;;;5097501;28;20227;-84
2021/03/24 11:18:43;;;;;;;13.93;8.25;;;18.20;27.40;;;;;;5112511;28;20647;-84
2021/03/24 11:21:33;;;;;;;14.43;8.45;;;17.50;27.60;;;;;;5121682;28;20225;-85
2021/03/24 11:24:14;;;;;;;13.90;8.05;;;16.30;29.00;;;;;;5102738;28;20224;-84
2021/03/24 11:26:50;;;;;;;14.13;7.85;;;15.50;29.60;;;;;;5118564;28;20204;-85
2021/03/24 11:29:22;;;;;;;12.68;7.97;;;15.40;28.20;;;;;;5116744;27;20223;-88
2021/03/24 11:35:23;;;;;;;12.48;7.47;;;15.20;30.10;;;;;;5120610;27;20260;-89
2021/03/24 11:37:57;;;;;;;11.90;6.60;;;14.70;29.30;;;;;;5132541;27;20215;-88
2021/03/24 11:40:35;;;;;;;13.70;7.30;;;14.40;31.60;;;;;;5102556;28;20239;-89
2021/03/24 11:43:05;;;;;;;13.25;7.45;;;14.20;32.20;;;;;;5121400;28;20184;-89
2021/03/24 11:45:34;;;;;;;12.40;7.45;;;14.40;32.50;;;;;;5109982;28;20704;-86
2021/03/24 11:48:27;;;;;;;12.77;7.50;;;14.30;33.40;;;;;;5103745;28;20264;-85
2021/03/24 11:51:15;;;;;;;10.45;7.03;;;14.20;32.90;;;;;;5102843;28;20319;-85
2021/03/24 11:57:46;;;;;;;11.50;6.95;;;13.80;32.90;;;;;;5115880;28;20256;-89
2021/03/24 12:00:28;;;;;;;11.48;7.00;;;13.70;34.50;;;;;;5110661;28;20223;-88
2021/03/24 12:09:41;;;;;;;13.52;6.97;;;13.80;34.40;;;;;;5139461;27;20230;-89
2021/03/24 12:12:15;;;;;;;11.90;7.65;;;13.80;35.00;;;;;;5138964;27;20195;-90
2021/03/24 12:14:48;;;;;;;10.68;7.90;;;13.80;34.30;;;;;;5139602;27;20232;-89
2021/03/24 12:21:16;;;;;;;12.40;7.25;;;14.00;34.50;;;;;;5101618;28;20227;-89
2021/03/24 12:23:44;;;;;;;11.35;8.02;;;14.00;34.10;;;;;;5099973;28;20274;-90
2021/03/24 12:26:23;;;;;;;10.80;7.25;;;13.80;33.80;;;;;;5087914;28;20196;-90
2021/03/24 12:32:23;;;;;;;10.02;6.65;;;13.60;35.80;;;;;;5120739;28;20163;-90
2021/03/24 12:34:50;;;;;;;13.60;6.45;;;13.60;34.70;;;;;;5120904;28;20219;-89
2021/03/24 12:40:48;;;;;;;11.75;7.18;;;13.60;35.90;;;;;;5123515;28;20222;-87
2021/03/24 12:43:21;;;;;;;9.77;7.72;;;13.70;34.60;;;;;;5121968;28;20251;-88
2021/03/24 12:49:19;;;;;;;10.65;5.95;;;13.40;34.00;;;;;;5108526;28;20219;-87
2021/03/24 12:51:54;;;;;;;15.18;7.80;;;13.50;33.10;;;;;;5120871;28;20282;-88
2021/03/24 12:54:26;;;;;;;15.35;6.75;;;13.60;34.20;;;;;;5114327;28;20248;-89
2021/03/24 12:57:12;;;;;;;11.82;7.70;;;13.60;33.30;;;;;;5098708;28;20216;-90
2021/03/24 12:59:56;;;;;;;13.02;6.68;;;13.60;32.20;;;;;;5088661;28;20232;-88
2021/03/24 13:02:44;;;;;;;11.63;6.72;;;13.70;32.70;;;;;;5100850;28;20212;-87
2021/03/24 13:05:30;;;;;;;10.32;6.10;;;13.80;33.20;;;;;;5114474;28;20236;-88
2021/03/24 13:08:06;;;;;;;15.10;6.45;;;13.80;33.00;;;;;;5102495;28;20196;-88
2021/03/24 13:10:46;;;;;;;10.40;5.93;;;13.90;33.60;;;;;;5119740;28;20223;-87
2021/03/24 13:13:40;;;;;;;10.20;6.22;;;13.70;32.20;;;;;;5127553;28;20296;-88
2021/03/24 13:19:47;;;;;;;13.52;6.28;;;13.90;32.50;;;;;;5120279;28;20264;-87
2021/03/24 13:22:20;;;;;;;10.38;5.50;;;13.80;31.90;;;;;;5143587;28;20199;-87
2021/03/24 13:25:11;;;;;;;8.45;5.38;;;13.70;31.90;;;;;;5141797;28;20227;-87
2021/03/24 13:28:18;;;;;;;8.60;5.45;;;13.60;30.60;;;;;;5143249;28;20188;-88
2021/03/24 13:30:55;;;;;;;7.00;4.70;;;13.70;32.10;;;;;;5123849;28;20253;-88
2021/03/24 13:33:28;;;;;;;9.00;5.60;;;13.70;31.40;;;;;;5142355;28;20603;-89
2021/03/24 13:36:01;;;;;;;8.38;4.53;;;13.80;32.30;;;;;;5142160;27;20226;-89
2021/03/24 13:38:38;;;;;;;6.85;3.60;;;13.90;30.60;;;;;;5131830;27;20299;-89
2021/03/24 13:41:07;;;;;;;10.65;4.43;;;14.10;30.70;;;;;;5089007;28;20212;-89
2021/03/24 13:47:13;;;;;;;11.23;4.60;;;14.10;29.50;;;;;;5085321;28;20223;-90
2021/03/24 13:56:01;;;;;;;9.43;4.68;;;14.10;29.60;;;;;;5086446;28;20231;-88
2021/03/24 13:58:55;;;;;;;7.93;4.40;;;14.10;29.10;;;;;;5099065;28;20224;-90
2021/03/24 14:01:51;;;;;;;7.32;5.20;;;14.10;30.80;;;;;;5105107;28;20213;-89
2021/03/24 14:04:31;;;;;;;8.10;5.40;;;14.20;30.70;;;;;;5093548;28;20289;-88
2021/03/24 14:10:29;;;;;;;12.45;5.88;;;14.20;32.10;;;;;;5120717;28;20244;-88
2021/03/24 14:16:28;;;;;;;7.35;4.88;;;14.10;30.80;;;;;;5128749;27;20296;-88
2021/03/24 14:19:09;;;;;;;9.13;6.10;;;14.20;31.40;;;;;;5120797;27;20278;-88
2021/03/24 14:21:59;;;;;;;10.40;5.88;;;14.20;30.00;;;;;;5130412;27;20186;-88
2021/03/24 14:27:58;;;;;;;6.68;3.80;;;14.30;30.30;;;;;;5126477;28;20695;-88
2021/03/24 14:30:30;;;;;;;5.45;3.88;;;14.30;27.20;;;;;;5125894;28;20287;-88
2021/03/24 14:33:37;;;;;;;10.35;3.53;;;14.30;27.30;;;;;;5127231;28;20623;-88
2021/03/24 14:36:08;;;;;;;8.30;3.78;;;14.30;27.20;;;;;;5124871;28;20202;-90
2021/03/24 14:41:31;;;;;;;22.15;10.25;;;14.20;27.20;;;;;;5125180;28;20196;-89
2021/03/24 14:47:35;;;;;;;6.65;3.40;;;14.20;27.10;;;;;;5126016;28;20171;-89
2021/03/24 14:56:31;;;;;;;10.57;3.30;;;14.00;27.00;;;;;;5126032;28;20235;-89
2021/03/24 14:59:31;;;;;;;4.53;3.20;;;14.00;27.00;;;;;;5122795;28;20352;-88
2021/03/24 15:02:29;;;;;;;6.15;3.28;;;14.10;27.00;;;;;;5122861;28;20280;-87
2021/03/24 15:04:57;;;;;;;4.18;3.00;;;14.10;25.60;;;;;;5123218;28;20363;-87
2021/03/24 15:07:32;;;;;;;4.95;3.00;;;14.10;27.00;;;;;;5124149;28;20203;-88
2021/03/24 15:10:23;;;;;;;3.92;2.75;;;14.20;25.50;;;;;;5124897;28;20294;-88
2021/03/24 15:12:54;;;;;;;7.38;3.53;;;14.10;24.00;;;;;;5124305;28;20211;-87
2021/03/24 15:15:44;;;;;;;4.32;3.17;;;14.00;26.70;;;;;;5105662;28;20223;-89
2021/03/24 15:18:19;;;;;;;4.55;3.30;;;14.00;27.00;;;;;;5113625;28;20240;-86
2021/03/24 15:20:48;;;;;;;11.05;3.55;;;13.90;26.90;;;;;;5123863;28;20313;-86
2021/03/24 15:23:26;;;;;;;7.15;3.63;;;13.90;26.90;;;;;;5124059;28;20199;-86
2021/03/24 15:25:57;;;;;;;7.45;3.90;;;13.90;29.30;;;;;;5105655;28;20287;-85
2021/03/24 15:28:39;;;;;;;5.65;3.15;;;13.90;29.10;;;;;;5123079;28;20184;-85
2021/03/24 15:31:31;;;;;;;5.10;2.90;;;13.90;26.90;;;;;;5069390;28;20217;-86
2021/03/24 15:34:11;;;;;;;4.90;3.40;;;13.90;25.20;;;;;;5089996;28;20231;-86
2021/03/24 15:36:43;;;;;;;4.80;3.15;;;14.00;25.70;;;;;;5085696;28;20220;-86
2021/03/24 15:39:17;;;;;;;4.88;3.00;;;13.90;26.90;;;;;;5102623;28;20287;-87